Time;durP1;ratioP1;P1;durP2;ratioP2;P2;SDS_P1;SDS_P2;PMS_P1;PMS_P2;Temp;Humidity;BMP_temperature;BMP_pressure;BME280_temperature;BME280_humidity;BME280_pressure;Samples;Min_cycle;Max_cycle;Signal;HPM_P1;HPM_P2
2021/04/03 00:02:13;;;;;;;4.83;2.87;;;;;;;;;;6116018;23;20169;-88
2021/04/03 00:05:17;;;;;;;8.37;2.87;;;;;;;;;;6114858;23;20209;-89
2021/04/03 00:08:24;;;;;;;4.97;3.00;;;;;;;;;;6117106;23;20217;-88
2021/04/03 00:11:28;;;;;;;6.40;2.70;;;;;;;;;;6108757;23;20192;-88
2021/04/03 00:14:34;;;;;;;4.87;2.83;;;;;;;;;;6115593;23;20213;-89
2021/04/03 00:17:38;;;;;;;5.30;3.07;;;;;;;;;;6116948;23;20506;-88
2021/04/03 00:20:45;;;;;;;4.77;2.63;;;;;;;;;;6116875;23;20181;-89
2021/04/03 00:23:50;;;;;;;4.90;3.00;;;;;;;;;;6115842;23;20200;-89
2021/04/03 00:26:55;;;;;;;5.53;3.13;;;;;;;;;;6132460;23;20170;-89
2021/04/03 00:30:14;;;;;;;6.20;3.10;;;;;;;;;;6114923;23;20571;-89
2021/04/03 00:33:20;;;;;;;7.83;2.93;;;;;;;;;;6115427;23;20402;-89
2021/04/03 00:36:25;;;;;;;10.30;3.20;;;;;;;;;;6113647;23;20177;-88
2021/04/03 00:39:30;;;;;;;6.27;3.60;;;;;;;;;;6116084;23;20192;-89
2021/04/03 00:42:34;;;;;;;4.67;2.90;;;;;;;;;;6114296;23;20221;-89
2021/04/03 00:45:41;;;;;;;5.97;3.10;;;;;;;;;;6115037;23;20248;-89
2021/04/03 00:48:46;;;;;;;5.93;3.17;;;;;;;;;;6115166;23;20245;-89
2021/04/03 00:51:51;;;;;;;5.83;3.10;;;;;;;;;;6114643;23;20196;-87
2021/04/03 00:54:55;;;;;;;7.37;3.27;;;;;;;;;;6113611;23;20177;-89
2021/04/03 00:58:02;;;;;;;5.37;2.97;;;;;;;;;;6114498;23;20177;-89
2021/04/03 01:01:08;;;;;;;4.80;2.80;;;;;;;;;;6132159;23;20177;-88
2021/04/03 01:04:16;;;;;;;6.53;3.17;;;;;;;;;;6112777;23;20177;-89
2021/04/03 01:07:20;;;;;;;5.10;2.90;;;;;;;;;;6113317;23;20201;-89
2021/04/03 01:10:27;;;;;;;7.23;3.23;;;;;;;;;;6113190;23;20169;-88
2021/04/03 01:13:42;;;;;;;5.47;3.20;;;;;;;;;;6113446;23;20172;-89
2021/04/03 01:16:58;;;;;;;4.50;2.93;;;;;;;;;;6112812;23;20197;-90
2021/04/03 01:20:10;;;;;;;7.63;2.67;;;;;;;;;;6113505;23;20180;-88
2021/04/03 01:23:36;;;;;;;6.23;3.10;;;;;;;;;;6113697;23;20173;-88
2021/04/03 01:27:03;;;;;;;5.47;2.80;;;;;;;;;;6113485;23;20214;-89
2021/04/03 01:30:14;;;;;;;4.03;2.63;;;;;;;;;;6115050;23;20198;-89
2021/04/03 01:33:25;;;;;;;5.93;3.00;;;;;;;;;;6114118;23;20217;-89
2021/04/03 01:36:32;;;;;;;4.87;2.93;;;;;;;;;;6113218;23;20176;-88
2021/04/03 01:39:37;;;;;;;7.17;3.27;;;;;;;;;;6113990;23;20201;-90
2021/04/03 01:42:44;;;;;;;5.83;3.03;;;;;;;;;;6114123;23;20169;-90
2021/04/03 01:45:51;;;;;;;7.67;3.30;;;;;;;;;;6112344;23;20196;-88
2021/04/03 01:48:57;;;;;;;5.00;2.77;;;;;;;;;;6112581;23;20193;-89
2021/04/03 01:52:02;;;;;;;5.40;2.97;;;;;;;;;;6113283;23;20260;-89
2021/04/03 01:55:11;;;;;;;4.90;2.97;;;;;;;;;;6112901;23;20178;-89
2021/04/03 01:58:18;;;;;;;7.23;3.27;;;;;;;;;;6112831;23;20176;-88
2021/04/03 02:01:26;;;;;;;6.33;3.10;;;;;;;;;;6113981;23;20620;-88
2021/04/03 02:04:31;;;;;;;5.43;3.07;;;;;;;;;;6113516;23;20505;-88
2021/04/03 02:07:40;;;;;;;6.20;3.20;;;;;;;;;;6113597;23;20173;-89
2021/04/03 02:10:44;;;;;;;5.33;3.07;;;;;;;;;;6113290;23;20635;-89
2021/04/03 02:13:49;;;;;;;5.43;3.00;;;;;;;;;;6114164;23;20274;-87
2021/04/03 02:16:56;;;;;;;6.20;3.13;;;;;;;;;;6114963;23;20173;-89
2021/04/03 02:20:03;;;;;;;5.73;3.10;;;;;;;;;;6115434;23;20178;-89
2021/04/03 02:23:08;;;;;;;7.07;3.10;;;;;;;;;;6113074;23;20208;-89
2021/04/03 02:26:12;;;;;;;6.50;2.70;;;;;;;;;;6114126;23;20241;-89
2021/04/03 02:29:18;;;;;;;9.03;3.43;;;;;;;;;;6114023;23;20194;-89
2021/04/03 02:32:26;;;;;;;6.40;3.10;;;;;;;;;;6113060;23;20303;-89
2021/04/03 02:35:32;;;;;;;5.90;3.47;;;;;;;;;;6113297;23;20230;-87
2021/04/03 02:38:40;;;;;;;6.17;3.20;;;;;;;;;;6112895;23;20301;-89
2021/04/03 02:41:51;;;;;;;6.17;3.20;;;;;;;;;;6113033;23;20189;-89
2021/04/03 02:44:58;;;;;;;8.00;3.20;;;;;;;;;;6113577;23;20519;-89
2021/04/03 02:48:05;;;;;;;6.17;3.40;;;;;;;;;;6114226;23;20193;-89
2021/04/03 02:51:12;;;;;;;5.93;3.20;;;;;;;;;;6113896;23;20205;-88
2021/04/03 02:54:18;;;;;;;7.63;3.47;;;;;;;;;;6112950;23;20260;-87
2021/04/03 02:57:26;;;;;;;7.63;2.90;;;;;;;;;;6112587;23;20298;-89
2021/04/03 03:00:32;;;;;;;6.30;3.33;;;;;;;;;;6131523;23;20165;-88
2021/04/03 03:03:39;;;;;;;5.07;3.10;;;;;;;;;;6113823;23;20621;-89
2021/04/03 03:06:46;;;;;;;7.93;3.40;;;;;;;;;;6112594;23;20280;-87
2021/04/03 03:09:54;;;;;;;5.87;3.40;;;;;;;;;;6112874;23;20173;-88
2021/04/03 03:13:01;;;;;;;7.03;3.67;;;;;;;;;;6111418;23;20220;-90
2021/04/03 03:16:11;;;;;;;6.63;3.27;;;;;;;;;;6112810;23;20197;-89
2021/04/03 03:19:17;;;;;;;6.50;3.37;;;;;;;;;;6113561;23;20562;-89
2021/04/03 03:22:25;;;;;;;7.57;3.17;;;;;;;;;;6112899;23;20169;-89
2021/04/03 03:25:30;;;;;;;7.30;3.53;;;;;;;;;;6112699;23;20181;-88
2021/04/03 03:28:35;;;;;;;8.13;3.50;;;;;;;;;;6112833;23;20169;-89
2021/04/03 03:31:41;;;;;;;5.83;3.43;;;;;;;;;;6114091;23;20200;-89
2021/04/03 03:34:49;;;;;;;8.77;3.70;;;;;;;;;;6115132;23;20191;-88
2021/04/03 03:37:54;;;;;;;5.50;3.40;;;;;;;;;;6115568;23;20549;-89
2021/04/03 03:41:02;;;;;;;9.10;3.77;;;;;;;;;;6113291;23;20245;-88
2021/04/03 03:44:09;;;;;;;6.27;3.60;;;;;;;;;;6113915;23;20192;-90
2021/04/03 03:47:15;;;;;;;6.73;3.30;;;;;;;;;;6113164;23;20205;-88
2021/04/03 03:50:24;;;;;;;6.30;3.40;;;;;;;;;;6114083;23;20206;-89
2021/04/03 03:53:30;;;;;;;5.20;3.30;;;;;;;;;;6113532;23;20578;-88
2021/04/03 03:56:35;;;;;;;5.90;3.70;;;;;;;;;;6112751;23;20169;-89
2021/04/03 03:59:40;;;;;;;6.93;3.83;;;;;;;;;;6112585;23;20176;-89
2021/04/03 04:02:45;;;;;;;7.87;3.50;;;;;;;;;;6112277;23;20262;-89
2021/04/03 04:05:58;;;;;;;6.80;3.80;;;;;;;;;;6112677;23;20173;-87
2021/04/03 04:09:05;;;;;;;8.33;3.73;;;;;;;;;;6112228;23;20629;-88
2021/04/03 04:12:15;;;;;;;6.10;3.47;;;;;;;;;;6111828;23;20201;-88
2021/04/03 04:15:29;;;;;;;10.83;4.20;;;;;;;;;;6111406;23;20177;-87
2021/04/03 04:18:35;;;;;;;8.33;4.00;;;;;;;;;;6113228;23;20172;-89
2021/04/03 04:21:44;;;;;;;8.70;4.37;;;;;;;;;;6113169;23;20194;-88
2021/04/03 04:24:48;;;;;;;7.80;4.37;;;;;;;;;;6113997;23;20182;-88
2021/04/03 04:28:00;;;;;;;10.87;4.53;;;;;;;;;;6113945;23;20193;-88
2021/04/03 04:31:05;;;;;;;10.63;4.80;;;;;;;;;;6111892;23;20673;-88
2021/04/03 04:34:20;;;;;;;7.37;4.53;;;;;;;;;;6113310;23;20240;-89
2021/04/03 04:37:31;;;;;;;11.87;4.50;;;;;;;;;;6113253;23;20177;-88
2021/04/03 04:40:36;;;;;;;11.70;5.10;;;;;;;;;;6115156;23;20197;-87
2021/04/03 04:43:41;;;;;;;9.70;5.10;;;;;;;;;;6114871;23;20217;-88
2021/04/03 04:46:46;;;;;;;8.37;4.77;;;;;;;;;;6113773;23;20169;-88
2021/04/03 04:49:53;;;;;;;9.67;4.83;;;;;;;;;;6114359;23;20229;-88
2021/04/03 04:52:59;;;;;;;12.17;5.00;;;;;;;;;;6097961;23;20208;-88
2021/04/03 04:56:06;;;;;;;11.90;4.60;;;;;;;;;;6132814;23;20177;-89
2021/04/03 04:59:16;;;;;;;10.73;5.13;;;;;;;;;;6114795;23;20174;-88
2021/04/03 05:02:26;;;;;;;11.80;4.93;;;;;;;;;;6114012;23;20285;-89
2021/04/03 05:05:30;;;;;;;10.20;4.93;;;;;;;;;;6115702;23;20253;-89
2021/04/03 05:08:36;;;;;;;15.37;5.10;;;;;;;;;;6115292;23;20260;-89
2021/04/03 05:11:40;;;;;;;13.67;6.73;;;;;;;;;;6114569;23;20499;-88
2021/04/03 05:14:44;;;;;;;16.63;6.00;;;;;;;;;;6114772;23;20183;-89
2021/04/03 05:17:48;;;;;;;13.17;5.60;;;;;;;;;;6114933;23;20194;-89
2021/04/03 05:20:53;;;;;;;14.27;5.80;;;;;;;;;;6114672;23;20189;-89
2021/04/03 05:23:58;;;;;;;15.97;5.50;;;;;;;;;;6115193;23;20168;-88
2021/04/03 05:27:02;;;;;;;17.13;6.13;;;;;;;;;;6113837;23;20317;-88
2021/04/03 05:30:08;;;;;;;12.63;5.80;;;;;;;;;;6115028;23;20194;-88
2021/04/03 05:33:12;;;;;;;17.30;6.07;;;;;;;;;;6115398;23;20250;-89
2021/04/03 05:36:17;;;;;;;15.60;5.43;;;;;;;;;;6112198;23;20189;-89
2021/04/03 05:39:22;;;;;;;14.00;5.73;;;;;;;;;;6114399;23;20232;-89
2021/04/03 05:42:28;;;;;;;15.37;5.80;;;;;;;;;;6114963;23;20248;-89
2021/04/03 05:45:37;;;;;;;12.87;5.47;;;;;;;;;;6114147;23;20220;-89
2021/04/03 05:48:41;;;;;;;14.50;5.63;;;;;;;;;;6114713;23;20193;-88
2021/04/03 05:51:46;;;;;;;18.80;6.03;;;;;;;;;;6114350;23;20201;-87
2021/04/03 05:54:51;;;;;;;17.73;6.43;;;;;;;;;;6113901;23;20665;-88
2021/04/03 05:57:55;;;;;;;14.23;5.90;;;;;;;;;;6113549;23;20584;-88
2021/04/03 06:01:00;;;;;;;15.83;6.00;;;;;;;;;;6115254;23;20507;-87
2021/04/03 06:04:05;;;;;;;20.07;6.07;;;;;;;;;;6113803;23;20533;-87
2021/04/03 06:07:11;;;;;;;13.17;5.60;;;;;;;;;;6114031;23;20177;-88
2021/04/03 06:10:16;;;;;;;15.97;6.37;;;;;;;;;;6114521;23;20224;-89
2021/04/03 06:13:21;;;;;;;18.60;6.83;;;;;;;;;;6113968;23;20205;-88
2021/04/03 06:16:27;;;;;;;19.70;6.50;;;;;;;;;;6111714;23;20220;-88
2021/04/03 06:19:34;;;;;;;16.77;6.20;;;;;;;;;;6112265;23;20308;-89
2021/04/03 06:22:45;;;;;;;17.07;6.60;;;;;;;;;;6113800;23;20165;-87
2021/04/03 06:25:54;;;;;;;15.63;5.90;;;;;;;;;;6111897;23;20177;-89
2021/04/03 06:29:19;;;;;;;15.50;6.50;;;;;;;;;;6113267;23;20224;-89
2021/04/03 06:32:26;;;;;;;24.27;6.93;;;;;;;;;;6115385;23;20521;-88
2021/04/03 06:35:30;;;;;;;15.27;5.80;;;;;;;;;;6112571;23;20173;-88
2021/04/03 06:38:35;;;;;;;14.83;6.10;;;;;;;;;;6114406;23;20190;-88
2021/04/03 06:41:41;;;;;;;17.87;5.60;;;;;;;;;;6112961;23;20173;-88
2021/04/03 06:44:45;;;;;;;14.37;5.83;;;;;;;;;;6113309;23;20248;-89
2021/04/03 06:47:50;;;;;;;18.57;5.83;;;;;;;;;;6112940;23;20173;-88
2021/04/03 06:50:55;;;;;;;19.47;5.50;;;;;;;;;;6112969;23;20181;-89
2021/04/03 06:54:01;;;;;;;16.00;6.50;;;;;;;;;;6114263;23;20182;-87
2021/04/03 06:57:09;;;;;;;21.63;6.13;;;;;;;;;;6113438;23;20173;-87
2021/04/03 07:00:14;;;;;;;17.20;6.10;;;;;;;;;;6113193;23;20189;-88
2021/04/03 07:03:23;;;;;;;16.40;5.63;;;;;;;;;;6130796;23;20177;-87
2021/04/03 07:06:27;;;;;;;14.87;5.53;;;;;;;;;;6112139;23;20188;-88
2021/04/03 07:09:34;;;;;;;16.33;5.53;;;;;;;;;;6113397;23;20560;-89
2021/04/03 07:12:40;;;;;;;12.00;5.07;;;;;;;;;;6112020;23;20197;-87
2021/04/03 07:15:45;;;;;;;13.57;4.67;;;;;;;;;;6114500;23;20247;-88
2021/04/03 07:18:50;;;;;;;15.47;5.27;;;;;;;;;;6114478;23;20174;-87
2021/04/03 07:21:55;;;;;;;10.97;4.47;;;;;;;;;;6113919;23;20177;-88
2021/04/03 07:25:00;;;;;;;14.13;5.10;;;;;;;;;;6113381;23;20227;-89
2021/04/03 07:28:05;;;;;;;8.13;4.40;;;;;;;;;;6113231;23;20200;-88
2021/04/03 07:31:10;;;;;;;12.27;4.73;;;;;;;;;;6113583;23;20173;-89
2021/04/03 07:34:14;;;;;;;11.37;4.40;;;;;;;;;;6117555;23;20180;-89
2021/04/03 07:37:31;;;;;;;9.63;3.80;;;;;;;;;;6113405;23;20177;-89
2021/04/03 07:40:36;;;;;;;9.00;3.70;;;;;;;;;;6113618;23;20185;-89
2021/04/03 07:43:43;;;;;;;8.57;4.33;;;;;;;;;;6113202;23;20414;-88
2021/04/03 07:46:48;;;;;;;14.73;4.80;;;;;;;;;;6112604;23;20177;-88
2021/04/03 07:49:54;;;;;;;9.47;3.80;;;;;;;;;;6112661;23;20205;-87
2021/04/03 07:52:58;;;;;;;9.93;3.80;;;;;;;;;;6112472;23;20193;-87
2021/04/03 07:56:04;;;;;;;11.77;4.03;;;;;;;;;;6111852;23;20177;-88
2021/04/03 07:59:10;;;;;;;9.23;3.60;;;;;;;;;;6113145;23;20656;-88
2021/04/03 08:02:15;;;;;;;14.00;4.20;;;;;;;;;;6112555;23;20556;-89
2021/04/03 08:05:19;;;;;;;12.03;3.70;;;;;;;;;;6112656;23;20538;-89
2021/04/03 08:08:24;;;;;;;11.67;3.47;;;;;;;;;;6113929;23;20621;-89
2021/04/03 08:11:29;;;;;;;10.97;4.47;;;;;;;;;;6112949;23;20180;-88
2021/04/03 08:14:42;;;;;;;22.50;3.50;;;;;;;;;;6116168;23;20659;-87
2021/04/03 08:17:52;;;;;;;9.57;3.60;;;;;;;;;;6117841;23;20173;-88
2021/04/03 08:20:57;;;;;;;9.13;4.00;;;;;;;;;;6114399;23;20512;-89
2021/04/03 08:24:02;;;;;;;7.17;2.67;;;;;;;;;;6116965;23;20735;-88
2021/04/03 08:27:07;;;;;;;5.47;2.70;;;;;;;;;;6115240;23;20169;-88
2021/04/03 08:30:22;;;;;;;5.87;2.50;;;;;;;;;;6115450;23;20173;-88
2021/04/03 08:33:31;;;;;;;7.43;2.60;;;;;;;;;;6115305;23;20197;-87
2021/04/03 08:36:36;;;;;;;11.60;3.00;;;;;;;;;;6113092;23;20253;-89
2021/04/03 08:39:41;;;;;;;8.40;3.10;;;;;;;;;;6113860;23;20177;-87
2021/04/03 08:42:46;;;;;;;8.80;2.47;;;;;;;;;;6113412;23;20226;-88
2021/04/03 08:45:51;;;;;;;7.63;2.60;;;;;;;;;;6114017;23;20196;-88
2021/04/03 08:48:56;;;;;;;7.70;2.87;;;;;;;;;;6113795;23;20225;-89
2021/04/03 08:52:01;;;;;;;11.43;2.83;;;;;;;;;;6112892;23;20197;-88
2021/04/03 08:55:06;;;;;;;11.37;2.90;;;;;;;;;;6113278;23;20313;-88
2021/04/03 08:58:11;;;;;;;7.77;2.67;;;;;;;;;;6113855;23;20177;-88
2021/04/03 09:01:16;;;;;;;9.00;3.00;;;;;;;;;;6114049;23;20615;-87
2021/04/03 09:04:22;;;;;;;13.27;3.20;;;;;;;;;;6114156;23;20216;-88
2021/04/03 09:07:36;;;;;;;10.00;3.27;;;;;;;;;;6114040;23;20239;-89
2021/04/03 09:10:41;;;;;;;15.43;2.67;;;;;;;;;;6116899;23;20177;-88
2021/04/03 09:13:46;;;;;;;13.63;3.20;;;;;;;;;;6116159;23;20213;-88
2021/04/03 09:16:51;;;;;;;7.10;2.80;;;;;;;;;;6115106;23;20213;-88
2021/04/03 09:20:06;;;;;;;4.77;2.87;;;;;;;;;;6114171;23;20601;-89
2021/04/03 09:23:10;;;;;;;18.57;3.20;;;;;;;;;;6115025;23;20518;-89
2021/04/03 09:26:14;;;;;;;8.27;3.07;;;;;;;;;;6132042;23;20675;-88
2021/04/03 09:29:19;;;;;;;8.30;2.77;;;;;;;;;;6119035;23;20243;-88
2021/04/03 09:32:24;;;;;;;11.47;2.77;;;;;;;;;;6114642;23;20197;-89
2021/04/03 09:35:29;;;;;;;9.27;2.78;;;;;;;;;;6112475;23;20185;-88
2021/04/03 09:38:34;;;;;;;8.10;2.90;;;;;;;;;;6114943;23;20205;-89
2021/04/03 09:41:45;;;;;;;6.70;3.30;;;;;;;;;;6113792;23;20249;-89
2021/04/03 09:44:50;;;;;;;7.03;2.97;;;;;;;;;;6112492;23;20216;-89
2021/04/03 09:47:57;;;;;;;10.90;3.20;;;;;;;;;;6114093;23;20181;-89
2021/04/03 09:51:02;;;;;;;9.10;3.37;;;;;;;;;;6114344;23;20201;-89
2021/04/03 09:54:07;;;;;;;9.33;3.00;;;;;;;;;;6131712;23;20212;-90
2021/04/03 09:57:11;;;;;;;9.55;3.10;;;;;;;;;;6114099;23;20575;-88
2021/04/03 10:00:16;;;;;;;4.85;2.83;;;;;;;;;;6111161;23;20173;-88
2021/04/03 10:03:21;;;;;;;8.52;2.55;;;;;;;;;;6112983;23;20157;-88
2021/04/03 10:06:26;;;;;;;8.68;3.08;;;;;;;;;;6111952;23;20189;-90
2021/04/03 10:09:31;;;;;;;7.73;3.20;;;;;;;;;;6112421;23;20208;-89
2021/04/03 10:12:35;;;;;;;9.63;2.90;;;;;;;;;;6113046;23;20245;-89
2021/04/03 10:15:41;;;;;;;10.40;3.40;;;;;;;;;;6112387;23;20174;-89
2021/04/03 10:18:47;;;;;;;9.30;3.10;;;;;;;;;;6112839;23;20209;-89
2021/04/03 10:21:52;;;;;;;7.00;3.33;;;;;;;;;;6113714;23;20189;-89
2021/04/03 10:24:57;;;;;;;5.57;3.00;;;;;;;;;;6114190;23;20254;-89
2021/04/03 10:28:01;;;;;;;6.47;3.00;;;;;;;;;;6114505;23;20236;-89
2021/04/03 10:31:06;;;;;;;7.85;3.13;;;;;;;;;;6116488;23;20526;-90
2021/04/03 10:34:12;;;;;;;7.57;2.45;;;;;;;;;;6113657;23;20196;-89
2021/04/03 10:37:17;;;;;;;8.23;3.00;;;;;;;;;;6132289;23;20221;-89
2021/04/03 10:40:22;;;;;;;5.00;2.67;;;;;;;;;;6113616;23;20204;-88
2021/04/03 10:43:27;;;;;;;7.35;2.90;;;;;;;;;;6112450;23;20161;-89
2021/04/03 10:46:31;;;;;;;6.18;2.30;;;;;;;;;;6112194;23;20186;-88
2021/04/03 10:49:36;;;;;;;7.93;2.50;;;;;;;;;;6130453;23;20515;-89
2021/04/03 10:52:40;;;;;;;6.13;2.60;;;;;;;;;;6112166;23;20200;-88
2021/04/03 10:55:45;;;;;;;6.70;2.60;;;;;;;;;;6113026;23;20177;-89
2021/04/03 10:58:50;;;;;;;7.57;2.47;;;;;;;;;;6113103;23;20200;-88
2021/04/03 11:01:55;;;;;;;5.88;2.58;;;;;;;;;;6131872;23;20611;-89
2021/04/03 11:05:00;;;;;;;5.55;2.20;;;;;;;;;;6132393;23;20169;-91
2021/04/03 11:08:05;;;;;;;5.47;2.03;;;;;;;;;;6113639;23;20202;-89
2021/04/03 11:11:09;;;;;;;6.80;2.60;;;;;;;;;;6113361;23;20193;-89
2021/04/03 11:14:14;;;;;;;7.95;2.67;;;;;;;;;;6113001;23;20196;-88
2021/04/03 11:17:19;;;;;;;9.32;2.55;;;;;;;;;;6113848;23;20197;-87
2021/04/03 11:20:25;;;;;;;5.05;2.47;;;;;;;;;;6112981;23;20496;-89
2021/04/03 11:23:30;;;;;;;7.13;2.90;;;;;;;;;;6114768;23;20198;-90
2021/04/03 11:26:34;;;;;;;15.67;3.80;;;;;;;;;;6112798;23;20563;-88
2021/04/03 11:29:38;;;;;;;9.37;3.83;;;;;;;;;;6114041;23;20180;-89
2021/04/03 11:32:44;;;;;;;7.87;3.63;;;;;;;;;;6111855;23;20345;-89
2021/04/03 11:35:50;;;;;;;9.77;3.73;;;;;;;;;;6111894;23;20248;-89
2021/04/03 11:38:54;;;;;;;7.50;3.43;;;;;;;;;;6113936;23;20209;-88
2021/04/03 11:41:59;;;;;;;10.33;3.57;;;;;;;;;;6116745;23;20177;-89
2021/04/03 11:45:04;;;;;;;9.27;3.70;;;;;;;;;;6114893;23;20188;-88
2021/04/03 11:48:08;;;;;;;9.47;3.60;;;;;;;;;;6130581;23;20177;-89
2021/04/03 11:51:14;;;;;;;6.93;3.70;;;;;;;;;;6113514;23;20224;-89
2021/04/03 11:54:19;;;;;;;11.00;3.47;;;;;;;;;;6113396;23;20301;-88
2021/04/03 11:57:23;;;;;;;9.70;3.30;;;;;;;;;;6113620;23;20173;-89
2021/04/03 12:00:28;;;;;;;8.23;3.30;;;;;;;;;;6113948;23;20284;-89
2021/04/03 12:03:32;;;;;;;7.68;3.10;;;;;;;;;;6113614;23;20277;-88
2021/04/03 12:06:37;;;;;;;7.68;3.30;;;;;;;;;;6113496;23;20218;-90
2021/04/03 12:09:42;;;;;;;9.68;3.47;;;;;;;;;;6114160;23;20250;-90
2021/04/03 12:12:46;;;;;;;9.18;4.40;;;;;;;;;;6113740;23;20250;-89
2021/04/03 12:15:51;;;;;;;9.48;3.75;;;;;;;;;;6113850;23;20200;-90
2021/04/03 12:18:56;;;;;;;8.85;3.97;;;;;;;;;;6114616;23;20232;-89
2021/04/03 12:22:01;;;;;;;11.27;4.38;;;;;;;;;;6115419;23;20177;-90
2021/04/03 12:25:06;;;;;;;6.75;3.55;;;;;;;;;;6114707;23;20213;-90
2021/04/03 12:28:10;;;;;;;9.13;3.75;;;;;;;;;;6114301;23;20172;-89
2021/04/03 12:31:15;;;;;;;8.55;2.97;;;;;;;;;;6113675;23;20169;-88
2021/04/03 12:34:20;;;;;;;3.90;2.40;;;;;;;;;;6114920;23;20657;-89
2021/04/03 12:37:26;;;;;;;4.40;2.60;;;;;;;;;;6113758;23;20188;-88
2021/04/03 12:40:30;;;;;;;9.83;3.57;;;;;;;;;;6114757;23;20177;-89
2021/04/03 12:43:36;;;;;;;5.90;2.70;;;;;;;;;;6114888;23;20227;-89
2021/04/03 12:46:40;;;;;;;5.70;2.93;;;;;;;;;;6115400;23;20511;-87
2021/04/03 12:49:45;;;;;;;7.43;3.00;;;;;;;;;;6132393;23;20177;-87
2021/04/03 12:52:51;;;;;;;7.33;2.87;;;;;;;;;;6115188;23;20196;-89
2021/04/03 12:55:55;;;;;;;6.57;2.60;;;;;;;;;;6114438;23;20201;-89
2021/04/03 12:58:59;;;;;;;6.03;2.83;;;;;;;;;;6114581;23;20173;-89
2021/04/03 13:02:04;;;;;;;7.93;3.40;;;;;;;;;;6132688;23;20238;-90
2021/04/03 13:05:09;;;;;;;10.53;3.40;;;;;;;;;;6115488;23;20481;-90
2021/04/03 13:08:15;;;;;;;9.73;3.13;;;;;;;;;;6115878;23;20190;-89
2021/04/03 13:11:19;;;;;;;9.57;3.07;;;;;;;;;;6119394;23;20201;-87
2021/04/03 13:14:24;;;;;;;10.57;2.97;;;;;;;;;;6118905;23;20672;-89
2021/04/03 13:17:29;;;;;;;7.80;2.87;;;;;;;;;;6117180;23;20200;-88
2021/04/03 13:20:33;;;;;;;4.93;3.27;;;;;;;;;;6117214;23;20519;-88
2021/04/03 13:23:39;;;;;;;5.27;2.67;;;;;;;;;;6116083;23;20213;-89
2021/04/03 13:26:43;;;;;;;6.67;2.70;;;;;;;;;;6116099;23;20199;-89
2021/04/03 13:29:48;;;;;;;3.95;1.98;;;;;;;;;;6115986;23;20217;-90
2021/04/03 13:32:52;;;;;;;8.35;2.78;;;;;;;;;;6116008;23;20196;-90
2021/04/03 13:35:57;;;;;;;8.75;3.10;;;;;;;;;;6116055;23;20291;-89
2021/04/03 13:39:03;;;;;;;5.43;2.45;;;;;;;;;;6115778;23;20581;-90
2021/04/03 13:42:08;;;;;;;4.43;1.90;;;;;;;;;;6114784;23;20195;-89
2021/04/03 13:45:13;;;;;;;5.10;2.10;;;;;;;;;;6115400;23;20212;-89
2021/04/03 13:48:17;;;;;;;5.18;1.90;;;;;;;;;;6116159;23;20629;-89
2021/04/03 13:51:22;;;;;;;4.15;2.10;;;;;;;;;;6115718;23;20504;-89
2021/04/03 13:54:30;;;;;;;4.28;2.30;;;;;;;;;;6115362;23;20197;-89
2021/04/03 13:57:34;;;;;;;8.73;2.80;;;;;;;;;;6115156;23;20160;-89
2021/04/03 14:00:39;;;;;;;11.77;2.83;;;;;;;;;;6113277;23;20181;-88
2021/04/03 14:03:43;;;;;;;5.60;2.90;;;;;;;;;;6116856;23;20241;-89
2021/04/03 14:06:49;;;;;;;7.65;3.33;;;;;;;;;;6114594;23;20565;-87
2021/04/03 14:09:54;;;;;;;10.50;3.15;;;;;;;;;;6114204;23;20512;-88
2021/04/03 14:12:59;;;;;;;5.90;2.70;;;;;;;;;;6112565;23;20799;-88
2021/04/03 14:16:03;;;;;;;8.27;2.73;;;;;;;;;;6113311;23;20177;-89
2021/04/03 14:19:08;;;;;;;7.53;2.50;;;;;;;;;;6114375;23;20220;-87
2021/04/03 14:22:13;;;;;;;7.20;2.80;;;;;;;;;;6113697;23;20177;-88
2021/04/03 14:25:21;;;;;;;5.73;2.50;;;;;;;;;;6113709;23;20189;-89
2021/04/03 14:28:25;;;;;;;4.95;2.25;;;;;;;;;;6114288;23;20176;-88
2021/04/03 14:31:31;;;;;;;4.80;2.30;;;;;;;;;;6115989;23;20221;-89
2021/04/03 14:34:36;;;;;;;5.60;2.70;;;;;;;;;;6114973;23;20193;-89
2021/04/03 14:37:41;;;;;;;5.68;2.40;;;;;;;;;;6115004;23;20251;-86
2021/04/03 14:40:47;;;;;;;7.20;3.03;;;;;;;;;;6099198;23;20176;-90
2021/04/03 14:43:53;;;;;;;9.07;3.60;;;;;;;;;;6114783;23;20189;-89
2021/04/03 14:46:58;;;;;;;5.35;2.42;;;;;;;;;;6114368;23;20172;-89
2021/04/03 14:50:03;;;;;;;7.22;3.08;;;;;;;;;;6114377;23;20588;-89
2021/04/03 14:53:08;;;;;;;7.20;3.17;;;;;;;;;;6114359;23;20193;-88
2021/04/03 14:56:14;;;;;;;6.60;2.80;;;;;;;;;;6114081;23;20176;-88
2021/04/03 14:59:18;;;;;;;8.68;3.45;;;;;;;;;;6115577;23;20177;-89
2021/04/03 15:02:23;;;;;;;6.38;3.15;;;;;;;;;;6113831;23;20585;-89
2021/04/03 15:05:27;;;;;;;8.45;3.50;;;;;;;;;;6113985;23;20180;-89
2021/04/03 15:08:31;;;;;;;7.68;3.13;;;;;;;;;;6113622;23;20176;-89
2021/04/03 15:11:38;;;;;;;8.80;3.37;;;;;;;;;;6115000;23;20246;-88
2021/04/03 15:14:42;;;;;;;6.97;3.20;;;;;;;;;;6116015;23;20680;-88
2021/04/03 15:17:47;;;;;;;8.17;3.00;;;;;;;;;;6116270;23;20264;-89
2021/04/03 15:20:51;;;;;;;7.60;3.17;;;;;;;;;;6114475;23;20181;-88
2021/04/03 15:23:58;;;;;;;12.93;4.17;;;;;;;;;;6114375;23;20180;-89
2021/04/03 15:27:05;;;;;;;6.60;2.60;;;;;;;;;;6114808;23;20173;-88
2021/04/03 15:30:10;;;;;;;3.47;1.95;;;;;;;;;;6113908;23;20169;-88
2021/04/03 15:33:15;;;;;;;4.72;2.08;;;;;;;;;;6115055;23;20224;-89
2021/04/03 15:36:19;;;;;;;11.18;2.40;;;;;;;;;;6130390;23;20181;-89
2021/04/03 15:39:23;;;;;;;5.65;1.90;;;;;;;;;;6112814;23;20181;-89
2021/04/03 15:42:29;;;;;;;5.15;2.30;;;;;;;;;;6114007;23;20177;-89
2021/04/03 15:45:33;;;;;;;5.50;2.30;;;;;;;;;;6112615;23;20196;-89
2021/04/03 15:48:38;;;;;;;5.80;2.63;;;;;;;;;;6113940;23;20205;-89
2021/04/03 15:51:42;;;;;;;4.33;2.40;;;;;;;;;;6114351;23;20710;-90
2021/04/03 15:54:47;;;;;;;6.00;2.20;;;;;;;;;;6113970;23;20229;-90
2021/04/03 15:57:52;;;;;;;5.77;1.87;;;;;;;;;;6113753;23;20508;-88
2021/04/03 16:00:56;;;;;;;5.83;2.17;;;;;;;;;;6114264;23;20172;-90
2021/04/03 16:04:01;;;;;;;9.20;2.60;;;;;;;;;;6113856;23;20221;-89
2021/04/03 16:07:06;;;;;;;4.40;2.20;;;;;;;;;;6113204;23;20220;-89
2021/04/03 16:10:12;;;;;;;6.80;2.43;;;;;;;;;;6114531;23;20217;-89
2021/04/03 16:13:17;;;;;;;5.00;2.30;;;;;;;;;;6113572;23;20228;-89
2021/04/03 16:16:21;;;;;;;4.60;2.10;;;;;;;;;;6113797;23;20252;-89
2021/04/03 16:19:26;;;;;;;5.30;2.20;;;;;;;;;;6113148;23;20177;-89
2021/04/03 16:22:31;;;;;;;11.40;3.77;;;;;;;;;;6114473;23;20511;-89
2021/04/03 16:25:36;;;;;;;7.20;2.30;;;;;;;;;;6113685;23;20177;-90
2021/04/03 16:28:41;;;;;;;5.90;2.77;;;;;;;;;;6114455;23;20172;-89
2021/04/03 16:31:45;;;;;;;7.20;2.37;;;;;;;;;;6114417;23;20289;-90
2021/04/03 16:34:50;;;;;;;7.40;2.00;;;;;;;;;;6114184;23;20197;-88
2021/04/03 16:37:55;;;;;;;8.50;2.67;;;;;;;;;;6115229;23;20173;-88
2021/04/03 16:41:00;;;;;;;7.93;2.90;;;;;;;;;;6116741;23;20624;-89
2021/04/03 16:44:08;;;;;;;7.30;2.30;;;;;;;;;;6114791;23;20248;-89
2021/04/03 16:47:12;;;;;;;8.20;2.50;;;;;;;;;;6115663;23;20177;-88
2021/04/03 16:50:17;;;;;;;7.50;2.33;;;;;;;;;;6117047;23;20213;-89
2021/04/03 16:53:21;;;;;;;7.50;2.23;;;;;;;;;;6117145;23;20192;-89
2021/04/03 16:56:26;;;;;;;8.87;2.50;;;;;;;;;;6115950;23;20273;-90
2021/04/03 16:59:31;;;;;;;6.00;2.50;;;;;;;;;;6117710;23;20169;-88
2021/04/03 17:02:36;;;;;;;4.33;2.20;;;;;;;;;;6115141;23;20252;-89
2021/04/03 17:05:41;;;;;;;6.93;2.37;;;;;;;;;;6116600;23;20181;-89
2021/04/03 17:08:45;;;;;;;7.50;2.30;;;;;;;;;;6117025;23;20172;-88
2021/04/03 17:11:49;;;;;;;7.03;2.23;;;;;;;;;;6116518;23;20177;-88
2021/04/03 17:14:55;;;;;;;4.17;2.17;;;;;;;;;;6115409;23;20197;-88
2021/04/03 17:18:00;;;;;;;6.57;2.40;;;;;;;;;;6099546;23;20181;-89
2021/04/03 17:21:05;;;;;;;5.70;2.20;;;;;;;;;;6116097;23;20249;-88
2021/04/03 17:24:09;;;;;;;7.57;2.73;;;;;;;;;;6115446;23;20217;-87
2021/04/03 17:27:14;;;;;;;5.93;2.13;;;;;;;;;;6116384;23;20173;-88
2021/04/03 17:30:20;;;;;;;5.50;2.13;;;;;;;;;;6114586;23;20172;-88
2021/04/03 17:33:25;;;;;;;5.77;2.00;;;;;;;;;;6115518;23;20254;-88
2021/04/03 17:36:30;;;;;;;8.87;2.47;;;;;;;;;;6115043;23;20181;-89
2021/04/03 17:39:35;;;;;;;5.23;2.50;;;;;;;;;;6119060;23;20552;-90
2021/04/03 17:42:39;;;;;;;4.60;2.60;;;;;;;;;;6117731;23;20194;-88
2021/04/03 17:45:45;;;;;;;7.30;2.50;;;;;;;;;;6116926;23;20189;-90
2021/04/03 17:48:49;;;;;;;5.27;2.47;;;;;;;;;;6117229;23;20173;-88
2021/04/03 17:51:54;;;;;;;5.17;2.40;;;;;;;;;;6134594;23;20560;-89
2021/04/03 17:54:58;;;;;;;8.53;2.27;;;;;;;;;;6118783;23;20176;-90
2021/04/03 17:58:07;;;;;;;13.27;2.30;;;;;;;;;;6119204;23;20177;-91
2021/04/03 18:01:13;;;;;;;6.63;2.80;;;;;;;;;;6118836;23;20190;-91
2021/04/03 18:04:17;;;;;;;8.07;3.03;;;;;;;;;;6119219;23;20241;-90
2021/04/03 18:07:21;;;;;;;6.43;2.40;;;;;;;;;;6116833;23;20176;-90
2021/04/03 18:10:26;;;;;;;7.53;2.60;;;;;;;;;;6117530;23;20675;-90
2021/04/03 18:13:30;;;;;;;10.67;3.50;;;;;;;;;;6121577;23;20193;-90
2021/04/03 18:16:36;;;;;;;7.87;3.50;;;;;;;;;;6119815;23;20168;-91
2021/04/03 18:19:45;;;;;;;12.50;3.53;;;;;;;;;;6119764;23;20177;-92
2021/04/03 18:22:51;;;;;;;12.00;3.70;;;;;;;;;;6120364;23;20227;-91
2021/04/03 18:25:56;;;;;;;11.97;3.70;;;;;;;;;;6120943;23;20182;-91
2021/04/03 18:29:01;;;;;;;12.10;3.97;;;;;;;;;;6120030;23;20188;-91
2021/04/03 18:32:08;;;;;;;9.07;3.00;;;;;;;;;;6118182;23;20201;-91